Pagrindinis puslapis
METAR-TAF:

METAR-TAF

Oro uostai :

Moldė, Norvegija

platuma: 62-45N, ilguma: 007-16E, Aukštis: 0 m

Dabartinis oras

Ataskaita buvo paskelbta 27 minutes, ne 20:50 UTC
Vėjas 5 kt iš Pietvakarių
Temperatūra 12°C
Drėgmė 94%
Slėgis 1012 hPa
Matomumas 10 km arba daugiau
lietus

METAR: ENML 172050Z AUTO 23005KT 9999NDV -RA OVC019/// 12/11 Q1012

Laikas: 23:17 (21:17 UTC)

Prognozė

Ataskaita buvo paskelbta 7 valandos ir 17 minutes, ne 14:00 UTC
Prognozė galioja nuo 17 metu 15 UTC su 17 metu 20 UTC
Vėjas 8 kt iš Šiaurės Vakarų
Matomumas 10 km arba daugiau
Mažai debesys ne aukštis 400 ft
Su prošvaistėmis ne aukštis 2000 ft
lietus
Laikinai
nuo 17 metu 15 UTC su 17 metu 20 UTC
Matomumas: 3000 m
Su prošvaistėmis ne aukštis 700 ft
Išsisklaidę debesys ne aukštis 1500 ft, Liūtiniai kamuoliniai debesys.
lietus, rūkana

TAF: ENML 171400Z 1715/1720 32008KT 9999 -RA FEW004 BKN020 TEMPO 1715/1720 3000 SHRA BR BKN007 SCT015CB

Orai ataskaitas ir orų prognozės (METAR, TAF).

turimą stotys yra geltonos ir raudonos taškus žemėlapyje.

Perkelti pele per norėdami pamatyti stoties vardą.

Tada spustelėkite, norėdami matyti oro stebėjimo ir prognozės.

Norėdami pakeisti žemėlapį: spustelėkite ant žalios mygtukų su juodo kryžiaus žemyn,; žalią mygtuką su brūkšneliu, jei norite nutolinti; arba žalių rodyklių gretimoms žemėlapius.


METAR-TAF: